sensor_id;sensor_type;location;lat;lon;timestamp;P1;durP1;ratioP1;P2;durP2;ratioP2
72801;SDS011;61891;55.818;37.084;2022-12-29T00:01:17;3.50;;;0.40;;
72801;SDS011;61891;55.818;37.084;2022-12-29T00:03:46;2.85;;;0.80;;
72801;SDS011;61891;55.818;37.084;2022-12-29T00:06:14;4.65;;;0.70;;
72801;SDS011;61891;55.818;37.084;2022-12-29T00:08:39;2.70;;;0.55;;
72801;SDS011;61891;55.818;37.084;2022-12-29T00:11:09;3.33;;;0.60;;
72801;SDS011;61891;55.818;37.084;2022-12-29T00:13:37;3.55;;;0.80;;
72801;SDS011;61891;55.818;37.084;2022-12-29T00:16:22;1.35;;;0.50;;
72801;SDS011;61891;55.818;37.084;2022-12-29T00:18:48;2.60;;;0.47;;
72801;SDS011;61891;55.818;37.084;2022-12-29T00:21:14;2.92;;;0.65;;
72801;SDS011;61891;55.818;37.084;2022-12-29T00:24:00;1.55;;;0.50;;
72801;SDS011;61891;55.818;37.084;2022-12-29T00:26:45;2.70;;;0.60;;
72801;SDS011;61891;55.818;37.084;2022-12-29T00:29:30;2.55;;;0.70;;
72801;SDS011;61891;55.818;37.084;2022-12-29T00:32:15;2.47;;;1.23;;
72801;SDS011;61891;55.818;37.084;2022-12-29T00:34:59;1.95;;;0.50;;
72801;SDS011;61891;55.818;37.084;2022-12-29T00:37:38;3.85;;;0.50;;
72801;SDS011;61891;55.818;37.084;2022-12-29T00:40:27;2.33;;;0.60;;
72801;SDS011;61891;55.818;37.084;2022-12-29T00:43:13;3.95;;;0.85;;
72801;SDS011;61891;55.818;37.084;2022-12-29T00:45:57;2.45;;;0.55;;
72801;SDS011;61891;55.818;37.084;2022-12-29T00:48:23;3.63;;;0.70;;
72801;SDS011;61891;55.818;37.084;2022-12-29T00:51:08;2.97;;;0.40;;
72801;SDS011;61891;55.818;37.084;2022-12-29T00:53:34;1.88;;;0.22;;
72801;SDS011;61891;55.818;37.084;2022-12-29T00:56:00;2.20;;;0.80;;
72801;SDS011;61891;55.818;37.084;2022-12-29T00:58:29;1.70;;;0.70;;
72801;SDS011;61891;55.818;37.084;2022-12-29T01:01:02;3.47;;;0.70;;
72801;SDS011;61891;55.818;37.084;2022-12-29T01:05:54;2.45;;;0.43;;
72801;SDS011;61891;55.818;37.084;2022-12-29T01:08:20;4.43;;;0.70;;
72801;SDS011;61891;55.818;37.084;2022-12-29T01:10:46;2.85;;;0.43;;
72801;SDS011;61891;55.818;37.084;2022-12-29T01:13:11;1.90;;;0.45;;
72801;SDS011;61891;55.818;37.084;2022-12-29T01:15:37;3.58;;;1.00;;
72801;SDS011;61891;55.818;37.084;2022-12-29T01:18:03;2.33;;;0.55;;
72801;SDS011;61891;55.818;37.084;2022-12-29T01:20:29;3.05;;;0.70;;
72801;SDS011;61891;55.818;37.084;2022-12-29T01:22:55;3.00;;;0.40;;
72801;SDS011;61891;55.818;37.084;2022-12-29T01:25:21;1.23;;;0.43;;
72801;SDS011;61891;55.818;37.084;2022-12-29T01:27:47;2.58;;;0.60;;
72801;SDS011;61891;55.818;37.084;2022-12-29T01:30:12;4.25;;;0.75;;
72801;SDS011;61891;55.818;37.084;2022-12-29T01:32:38;1.20;;;0.50;;
72801;SDS011;61891;55.818;37.084;2022-12-29T01:35:04;0.90;;;0.57;;
72801;SDS011;61891;55.818;37.084;2022-12-29T01:37:33;2.15;;;0.60;;
72801;SDS011;61891;55.818;37.084;2022-12-29T01:39:59;3.70;;;0.38;;
72801;SDS011;61891;55.818;37.084;2022-12-29T01:42:24;2.50;;;0.80;;
72801;SDS011;61891;55.818;37.084;2022-12-29T01:44:52;2.95;;;0.32;;
72801;SDS011;61891;55.818;37.084;2022-12-29T01:47:30;1.80;;;0.47;;
72801;SDS011;61891;55.818;37.084;2022-12-29T01:50:09;1.73;;;0.57;;
72801;SDS011;61891;55.818;37.084;2022-12-29T01:52:42;2.88;;;0.40;;
72801;SDS011;61891;55.818;37.084;2022-12-29T01:55:21;3.13;;;0.55;;
72801;SDS011;61891;55.818;37.084;2022-12-29T01:57:48;3.25;;;0.70;;
72801;SDS011;61891;55.818;37.084;2022-12-29T02:00:16;2.08;;;0.85;;
72801;SDS011;61891;55.818;37.084;2022-12-29T02:02:47;1.70;;;0.43;;
72801;SDS011;61891;55.818;37.084;2022-12-29T02:05:20;3.97;;;0.93;;
72801;SDS011;61891;55.818;37.084;2022-12-29T02:07:46;3.53;;;0.60;;
72801;SDS011;61891;55.818;37.084;2022-12-29T02:10:13;3.15;;;0.57;;
72801;SDS011;61891;55.818;37.084;2022-12-29T02:12:40;3.05;;;0.70;;
72801;SDS011;61891;55.818;37.084;2022-12-29T02:15:06;4.25;;;0.50;;
72801;SDS011;61891;55.818;37.084;2022-12-29T02:20:55;1.67;;;0.45;;
72801;SDS011;61891;55.818;37.084;2022-12-29T02:26:27;6.07;;;0.77;;
72801;SDS011;61891;55.818;37.084;2022-12-29T02:34:19;2.70;;;0.40;;
72801;SDS011;61891;55.818;37.084;2022-12-29T02:45:49;2.78;;;0.50;;
72801;SDS011;61891;55.818;37.084;2022-12-29T02:48:30;2.10;;;0.40;;
72801;SDS011;61891;55.818;37.084;2022-12-29T02:51:31;4.43;;;0.75;;
72801;SDS011;61891;55.818;37.084;2022-12-29T02:54:05;1.50;;;0.30;;
72801;SDS011;61891;55.818;37.084;2022-12-29T02:56:49;2.33;;;0.40;;
72801;SDS011;61891;55.818;37.084;2022-12-29T02:59:16;3.67;;;0.60;;
72801;SDS011;61891;55.818;37.084;2022-12-29T03:07:09;2.08;;;0.60;;
72801;SDS011;61891;55.818;37.084;2022-12-29T03:15:49;1.17;;;0.43;;
72801;SDS011;61891;55.818;37.084;2022-12-29T03:18:46;4.22;;;0.52;;
72801;SDS011;61891;55.818;37.084;2022-12-29T03:21:27;5.15;;;0.80;;
72801;SDS011;61891;55.818;37.084;2022-12-29T03:24:43;6.22;;;1.35;;
72801;SDS011;61891;55.818;37.084;2022-12-29T03:27:14;3.03;;;0.63;;
72801;SDS011;61891;55.818;37.084;2022-12-29T03:29:46;3.22;;;1.08;;
72801;SDS011;61891;55.818;37.084;2022-12-29T03:32:19;4.75;;;1.80;;
72801;SDS011;61891;55.818;37.084;2022-12-29T03:34:50;3.50;;;1.05;;
72801;SDS011;61891;55.818;37.084;2022-12-29T03:37:21;3.95;;;1.33;;
72801;SDS011;61891;55.818;37.084;2022-12-29T03:39:57;5.68;;;1.40;;
72801;SDS011;61891;55.818;37.084;2022-12-29T03:42:24;4.47;;;1.38;;
72801;SDS011;61891;55.818;37.084;2022-12-29T03:44:54;4.38;;;1.00;;
72801;SDS011;61891;55.818;37.084;2022-12-29T03:47:24;2.72;;;1.10;;
72801;SDS011;61891;55.818;37.084;2022-12-29T03:49:52;1.38;;;0.77;;
72801;SDS011;61891;55.818;37.084;2022-12-29T03:52:18;4.82;;;1.50;;
72801;SDS011;61891;55.818;37.084;2022-12-29T03:54:45;3.85;;;0.70;;
72801;SDS011;61891;55.818;37.084;2022-12-29T03:57:12;7.97;;;1.50;;
72801;SDS011;61891;55.818;37.084;2022-12-29T03:59:48;4.18;;;1.15;;
72801;SDS011;61891;55.818;37.084;2022-12-29T04:02:14;1.58;;;0.60;;
72801;SDS011;61891;55.818;37.084;2022-12-29T04:04:40;3.13;;;1.02;;
72801;SDS011;61891;55.818;37.084;2022-12-29T04:07:06;3.53;;;0.70;;
72801;SDS011;61891;55.818;37.084;2022-12-29T04:09:32;3.60;;;0.95;;
72801;SDS011;61891;55.818;37.084;2022-12-29T04:11:58;2.45;;;0.90;;
72801;SDS011;61891;55.818;37.084;2022-12-29T04:14:24;3.70;;;0.90;;
72801;SDS011;61891;55.818;37.084;2022-12-29T04:16:51;2.50;;;1.10;;
72801;SDS011;61891;55.818;37.084;2022-12-29T04:19:17;1.38;;;0.60;;
72801;SDS011;61891;55.818;37.084;2022-12-29T04:21:43;1.17;;;0.60;;
72801;SDS011;61891;55.818;37.084;2022-12-29T04:24:09;2.42;;;0.77;;
72801;SDS011;61891;55.818;37.084;2022-12-29T04:26:39;3.30;;;0.60;;
72801;SDS011;61891;55.818;37.084;2022-12-29T04:29:19;4.95;;;1.00;;
72801;SDS011;61891;55.818;37.084;2022-12-29T04:32:11;1.65;;;0.65;;
72801;SDS011;61891;55.818;37.084;2022-12-29T04:34:42;2.45;;;0.85;;
72801;SDS011;61891;55.818;37.084;2022-12-29T04:37:08;4.82;;;0.73;;
72801;SDS011;61891;55.818;37.084;2022-12-29T04:39:35;2.65;;;0.88;;
72801;SDS011;61891;55.818;37.084;2022-12-29T04:42:04;2.08;;;0.88;;
72801;SDS011;61891;55.818;37.084;2022-12-29T04:44:30;5.43;;;0.90;;
72801;SDS011;61891;55.818;37.084;2022-12-29T04:47:18;3.88;;;0.75;;
72801;SDS011;61891;55.818;37.084;2022-12-29T04:49:58;1.92;;;1.20;;
72801;SDS011;61891;55.818;37.084;2022-12-29T04:52:32;4.57;;;1.30;;
72801;SDS011;61891;55.818;37.084;2022-12-29T04:54:58;5.22;;;0.90;;
72801;SDS011;61891;55.818;37.084;2022-12-29T04:57:24;4.43;;;1.20;;
72801;SDS011;61891;55.818;37.084;2022-12-29T04:59:54;4.85;;;1.70;;
72801;SDS011;61891;55.818;37.084;2022-12-29T05:02:21;3.08;;;1.13;;
72801;SDS011;61891;55.818;37.084;2022-12-29T05:04:49;2.25;;;1.15;;
72801;SDS011;61891;55.818;37.084;2022-12-29T05:07:15;3.00;;;1.20;;
72801;SDS011;61891;55.818;37.084;2022-12-29T05:09:43;3.20;;;0.73;;
72801;SDS011;61891;55.818;37.084;2022-12-29T05:12:09;2.17;;;0.70;;
72801;SDS011;61891;55.818;37.084;2022-12-29T05:14:44;5.43;;;0.90;;
72801;SDS011;61891;55.818;37.084;2022-12-29T05:17:10;3.42;;;0.80;;
72801;SDS011;61891;55.818;37.084;2022-12-29T05:19:36;5.28;;;1.40;;
72801;SDS011;61891;55.818;37.084;2022-12-29T05:22:03;6.22;;;1.00;;
72801;SDS011;61891;55.818;37.084;2022-12-29T05:24:30;3.13;;;1.10;;
72801;SDS011;61891;55.818;37.084;2022-12-29T05:26:56;4.35;;;1.00;;
72801;SDS011;61891;55.818;37.084;2022-12-29T05:29:48;4.05;;;0.90;;
72801;SDS011;61891;55.818;37.084;2022-12-29T05:32:14;5.30;;;1.10;;
72801;SDS011;61891;55.818;37.084;2022-12-29T05:34:41;3.33;;;1.30;;
72801;SDS011;61891;55.818;37.084;2022-12-29T05:37:08;6.40;;;1.35;;
72801;SDS011;61891;55.818;37.084;2022-12-29T05:39:34;5.63;;;1.13;;
72801;SDS011;61891;55.818;37.084;2022-12-29T05:42:02;6.80;;;1.40;;
72801;SDS011;61891;55.818;37.084;2022-12-29T05:44:48;4.45;;;1.50;;
72801;SDS011;61891;55.818;37.084;2022-12-29T05:47:34;4.93;;;1.33;;
72801;SDS011;61891;55.818;37.084;2022-12-29T05:50:22;2.38;;;1.02;;
72801;SDS011;61891;55.818;37.084;2022-12-29T05:53:14;4.78;;;1.30;;
72801;SDS011;61891;55.818;37.084;2022-12-29T05:55:42;2.53;;;0.88;;
72801;SDS011;61891;55.818;37.084;2022-12-29T05:58:08;4.15;;;0.95;;
72801;SDS011;61891;55.818;37.084;2022-12-29T06:00:35;6.03;;;1.30;;
72801;SDS011;61891;55.818;37.084;2022-12-29T06:03:01;3.28;;;1.20;;
72801;SDS011;61891;55.818;37.084;2022-12-29T06:05:27;2.65;;;0.82;;
72801;SDS011;61891;55.818;37.084;2022-12-29T06:07:52;2.80;;;0.80;;
72801;SDS011;61891;55.818;37.084;2022-12-29T06:10:19;3.47;;;0.90;;
72801;SDS011;61891;55.818;37.084;2022-12-29T06:13:00;3.40;;;0.95;;
72801;SDS011;61891;55.818;37.084;2022-12-29T06:15:26;6.97;;;1.92;;
72801;SDS011;61891;55.818;37.084;2022-12-29T06:17:52;3.55;;;1.20;;
72801;SDS011;61891;55.818;37.084;2022-12-29T06:20:18;3.78;;;1.00;;
72801;SDS011;61891;55.818;37.084;2022-12-29T06:22:44;4.55;;;0.93;;
72801;SDS011;61891;55.818;37.084;2022-12-29T06:25:12;4.90;;;1.25;;
72801;SDS011;61891;55.818;37.084;2022-12-29T06:27:39;6.53;;;1.83;;
72801;SDS011;61891;55.818;37.084;2022-12-29T06:30:05;5.60;;;2.50;;
72801;SDS011;61891;55.818;37.084;2022-12-29T06:32:31;3.60;;;1.40;;
72801;SDS011;61891;55.818;37.084;2022-12-29T06:35:03;3.50;;;1.13;;
72801;SDS011;61891;55.818;37.084;2022-12-29T06:37:35;5.03;;;1.45;;
72801;SDS011;61891;55.818;37.084;2022-12-29T06:40:01;3.65;;;0.90;;
72801;SDS011;61891;55.818;37.084;2022-12-29T06:42:38;5.70;;;1.48;;
72801;SDS011;61891;55.818;37.084;2022-12-29T06:45:30;3.42;;;1.20;;
72801;SDS011;61891;55.818;37.084;2022-12-29T06:47:55;8.68;;;1.77;;
72801;SDS011;61891;55.818;37.084;2022-12-29T06:50:21;7.03;;;1.70;;
72801;SDS011;61891;55.818;37.084;2022-12-29T06:52:47;3.83;;;1.55;;
72801;SDS011;61891;55.818;37.084;2022-12-29T06:55:13;6.18;;;1.88;;
72801;SDS011;61891;55.818;37.084;2022-12-29T06:57:38;5.75;;;1.75;;
72801;SDS011;61891;55.818;37.084;2022-12-29T07:00:04;4.15;;;1.83;;
72801;SDS011;61891;55.818;37.084;2022-12-29T07:02:30;3.53;;;1.35;;
72801;SDS011;61891;55.818;37.084;2022-12-29T07:04:56;4.57;;;1.10;;
72801;SDS011;61891;55.818;37.084;2022-12-29T07:07:22;6.93;;;1.70;;
72801;SDS011;61891;55.818;37.084;2022-12-29T07:09:47;5.63;;;2.10;;
72801;SDS011;61891;55.818;37.084;2022-12-29T07:12:13;4.82;;;1.90;;
72801;SDS011;61891;55.818;37.084;2022-12-29T07:14:39;4.78;;;1.67;;
72801;SDS011;61891;55.818;37.084;2022-12-29T07:17:05;6.50;;;1.40;;
72801;SDS011;61891;55.818;37.084;2022-12-29T07:19:31;3.13;;;1.33;;
72801;SDS011;61891;55.818;37.084;2022-12-29T07:21:58;6.07;;;1.73;;
72801;SDS011;61891;55.818;37.084;2022-12-29T07:24:24;2.90;;;0.95;;
72801;SDS011;61891;55.818;37.084;2022-12-29T07:26:52;6.03;;;2.35;;
72801;SDS011;61891;55.818;37.084;2022-12-29T07:29:18;2.22;;;1.23;;
72801;SDS011;61891;55.818;37.084;2022-12-29T07:31:44;4.72;;;1.67;;
72801;SDS011;61891;55.818;37.084;2022-12-29T07:34:10;0.90;;;0.52;;
72801;SDS011;61891;55.818;37.084;2022-12-29T07:36:35;4.60;;;1.77;;
72801;SDS011;61891;55.818;37.084;2022-12-29T07:39:02;3.90;;;2.05;;
72801;SDS011;61891;55.818;37.084;2022-12-29T07:43:54;4.82;;;2.15;;
72801;SDS011;61891;55.818;37.084;2022-12-29T07:46:32;3.22;;;1.40;;
72801;SDS011;61891;55.818;37.084;2022-12-29T07:48:58;5.47;;;1.75;;
72801;SDS011;61891;55.818;37.084;2022-12-29T07:51:24;4.03;;;1.88;;
72801;SDS011;61891;55.818;37.084;2022-12-29T07:53:49;5.47;;;1.88;;
72801;SDS011;61891;55.818;37.084;2022-12-29T07:56:15;3.25;;;1.20;;
72801;SDS011;61891;55.818;37.084;2022-12-29T07:58:41;2.65;;;0.73;;
72801;SDS011;61891;55.818;37.084;2022-12-29T08:01:07;3.05;;;1.30;;
72801;SDS011;61891;55.818;37.084;2022-12-29T08:03:33;2.53;;;0.98;;
72801;SDS011;61891;55.818;37.084;2022-12-29T08:05:58;2.75;;;1.02;;
72801;SDS011;61891;55.818;37.084;2022-12-29T08:08:24;8.65;;;2.13;;
72801;SDS011;61891;55.818;37.084;2022-12-29T08:10:50;5.85;;;2.60;;
72801;SDS011;61891;55.818;37.084;2022-12-29T08:13:16;6.40;;;2.10;;
72801;SDS011;61891;55.818;37.084;2022-12-29T08:15:41;4.88;;;1.52;;
72801;SDS011;61891;55.818;37.084;2022-12-29T08:18:07;3.50;;;1.60;;
72801;SDS011;61891;55.818;37.084;2022-12-29T08:20:33;2.88;;;1.25;;
72801;SDS011;61891;55.818;37.084;2022-12-29T08:22:58;4.40;;;1.40;;
72801;SDS011;61891;55.818;37.084;2022-12-29T08:25:24;3.72;;;1.15;;
72801;SDS011;61891;55.818;37.084;2022-12-29T08:27:50;6.95;;;1.80;;
72801;SDS011;61891;55.818;37.084;2022-12-29T08:30:15;2.88;;;0.75;;
72801;SDS011;61891;55.818;37.084;2022-12-29T08:32:41;1.25;;;0.57;;
72801;SDS011;61891;55.818;37.084;2022-12-29T08:35:07;4.82;;;1.70;;
72801;SDS011;61891;55.818;37.084;2022-12-29T08:37:34;1.52;;;0.63;;
72801;SDS011;61891;55.818;37.084;2022-12-29T08:40:00;2.00;;;1.20;;
72801;SDS011;61891;55.818;37.084;2022-12-29T08:42:30;2.53;;;0.70;;
72801;SDS011;61891;55.818;37.084;2022-12-29T08:44:59;3.17;;;1.17;;
72801;SDS011;61891;55.818;37.084;2022-12-29T08:47:25;6.50;;;1.27;;
72801;SDS011;61891;55.818;37.084;2022-12-29T08:49:52;4.63;;;0.90;;
72801;SDS011;61891;55.818;37.084;2022-12-29T08:52:17;1.52;;;0.75;;
72801;SDS011;61891;55.818;37.084;2022-12-29T08:54:43;2.58;;;1.10;;
72801;SDS011;61891;55.818;37.084;2022-12-29T08:57:09;4.75;;;0.80;;
72801;SDS011;61891;55.818;37.084;2022-12-29T08:59:43;1.50;;;1.08;;
72801;SDS011;61891;55.818;37.084;2022-12-29T09:02:12;2.60;;;0.73;;
72801;SDS011;61891;55.818;37.084;2022-12-29T09:04:38;2.38;;;0.73;;
72801;SDS011;61891;55.818;37.084;2022-12-29T09:07:03;4.60;;;1.27;;
72801;SDS011;61891;55.818;37.084;2022-12-29T09:09:30;2.30;;;1.20;;
72801;SDS011;61891;55.818;37.084;2022-12-29T09:11:57;2.97;;;1.02;;
72801;SDS011;61891;55.818;37.084;2022-12-29T09:14:22;5.95;;;1.55;;
72801;SDS011;61891;55.818;37.084;2022-12-29T09:16:50;3.88;;;1.65;;
72801;SDS011;61891;55.818;37.084;2022-12-29T09:19:35;3.63;;;1.55;;
72801;SDS011;61891;55.818;37.084;2022-12-29T09:22:00;3.65;;;1.67;;
72801;SDS011;61891;55.818;37.084;2022-12-29T09:24:26;4.28;;;1.65;;
72801;SDS011;61891;55.818;37.084;2022-12-29T09:26:52;4.60;;;1.77;;
72801;SDS011;61891;55.818;37.084;2022-12-29T09:29:17;4.93;;;1.65;;
72801;SDS011;61891;55.818;37.084;2022-12-29T09:31:43;5.68;;;1.73;;
72801;SDS011;61891;55.818;37.084;2022-12-29T09:34:09;4.05;;;1.77;;
72801;SDS011;61891;55.818;37.084;2022-12-29T09:36:34;7.55;;;2.40;;
72801;SDS011;61891;55.818;37.084;2022-12-29T09:39:00;2.60;;;1.23;;
72801;SDS011;61891;55.818;37.084;2022-12-29T09:41:28;4.90;;;1.65;;
72801;SDS011;61891;55.818;37.084;2022-12-29T09:44:06;11.65;;;4.07;;
72801;SDS011;61891;55.818;37.084;2022-12-29T09:46:46;15.90;;;5.82;;
72801;SDS011;61891;55.818;37.084;2022-12-29T09:49:26;3.90;;;2.15;;
72801;SDS011;61891;55.818;37.084;2022-12-29T09:51:59;6.80;;;2.78;;
72801;SDS011;61891;55.818;37.084;2022-12-29T09:54:46;8.15;;;2.97;;
72801;SDS011;61891;55.818;37.084;2022-12-29T09:57:48;9.70;;;3.45;;
72801;SDS011;61891;55.818;37.084;2022-12-29T10:00:20;8.75;;;2.92;;
72801;SDS011;61891;55.818;37.084;2022-12-29T10:08:27;10.63;;;3.63;;
72801;SDS011;61891;55.818;37.084;2022-12-29T10:13:52;10.15;;;3.85;;
72801;SDS011;61891;55.818;37.084;2022-12-29T10:16:51;7.35;;;3.15;;
72801;SDS011;61891;55.818;37.084;2022-12-29T10:19:28;7.00;;;3.00;;
72801;SDS011;61891;55.818;37.084;2022-12-29T10:22:03;8.27;;;2.70;;
72801;SDS011;61891;55.818;37.084;2022-12-29T10:24:37;7.90;;;2.88;;
72801;SDS011;61891;55.818;37.084;2022-12-29T10:27:05;9.93;;;3.17;;
72801;SDS011;61891;55.818;37.084;2022-12-29T10:29:37;7.22;;;2.60;;
72801;SDS011;61891;55.818;37.084;2022-12-29T10:32:30;6.22;;;2.67;;
72801;SDS011;61891;55.818;37.084;2022-12-29T10:35:12;5.78;;;2.40;;
72801;SDS011;61891;55.818;37.084;2022-12-29T10:37:45;6.63;;;2.95;;
72801;SDS011;61891;55.818;37.084;2022-12-29T10:40:40;10.30;;;3.47;;
72801;SDS011;61891;55.818;37.084;2022-12-29T10:46:02;7.28;;;3.05;;
72801;SDS011;61891;55.818;37.084;2022-12-29T10:48:36;10.45;;;4.72;;
72801;SDS011;61891;55.818;37.084;2022-12-29T10:51:03;8.55;;;4.20;;
72801;SDS011;61891;55.818;37.084;2022-12-29T10:56:34;9.00;;;4.35;;
72801;SDS011;61891;55.818;37.084;2022-12-29T10:59:23;9.63;;;4.25;;
72801;SDS011;61891;55.818;37.084;2022-12-29T11:07:15;8.80;;;4.00;;
72801;SDS011;61891;55.818;37.084;2022-12-29T11:09:44;8.93;;;3.75;;
72801;SDS011;61891;55.818;37.084;2022-12-29T11:12:26;10.13;;;4.70;;
72801;SDS011;61891;55.818;37.084;2022-12-29T11:17:45;10.98;;;3.95;;
72801;SDS011;61891;55.818;37.084;2022-12-29T11:20:32;7.30;;;3.53;;
72801;SDS011;61891;55.818;37.084;2022-12-29T11:23:20;10.52;;;4.53;;
72801;SDS011;61891;55.818;37.084;2022-12-29T11:28:47;9.32;;;4.15;;
72801;SDS011;61891;55.818;37.084;2022-12-29T11:31:30;10.90;;;4.90;;
72801;SDS011;61891;55.818;37.084;2022-12-29T11:33:56;9.50;;;4.35;;
72801;SDS011;61891;55.818;37.084;2022-12-29T11:36:22;8.65;;;3.92;;
72801;SDS011;61891;55.818;37.084;2022-12-29T11:38:53;10.85;;;4.38;;
72801;SDS011;61891;55.818;37.084;2022-12-29T11:41:22;8.75;;;3.80;;
72801;SDS011;61891;55.818;37.084;2022-12-29T11:43:55;10.27;;;3.92;;
72801;SDS011;61891;55.818;37.084;2022-12-29T11:46:27;8.80;;;2.97;;
72801;SDS011;61891;55.818;37.084;2022-12-29T11:48:56;5.95;;;2.67;;
72801;SDS011;61891;55.818;37.084;2022-12-29T11:51:34;7.50;;;3.10;;
72801;SDS011;61891;55.818;37.084;2022-12-29T11:54:02;9.38;;;3.40;;
72801;SDS011;61891;55.818;37.084;2022-12-29T11:56:39;7.25;;;3.45;;
72801;SDS011;61891;55.818;37.084;2022-12-29T12:05:08;8.75;;;3.65;;
72801;SDS011;61891;55.818;37.084;2022-12-29T12:07:55;8.10;;;3.42;;
72801;SDS011;61891;55.818;37.084;2022-12-29T12:10:28;8.65;;;3.42;;
72801;SDS011;61891;55.818;37.084;2022-12-29T12:13:03;10.95;;;3.63;;
72801;SDS011;61891;55.818;37.084;2022-12-29T12:15:40;9.52;;;4.10;;
72801;SDS011;61891;55.818;37.084;2022-12-29T12:20:52;11.52;;;4.35;;
72801;SDS011;61891;55.818;37.084;2022-12-29T12:23:27;9.32;;;4.15;;
72801;SDS011;61891;55.818;37.084;2022-12-29T12:25:57;12.20;;;4.20;;
72801;SDS011;61891;55.818;37.084;2022-12-29T12:28:42;8.85;;;3.83;;
72801;SDS011;61891;55.818;37.084;2022-12-29T12:34:18;13.10;;;4.47;;
72801;SDS011;61891;55.818;37.084;2022-12-29T12:58:10;13.40;;;4.45;;
72801;SDS011;61891;55.818;37.084;2022-12-29T13:06:34;14.75;;;4.80;;
72801;SDS011;61891;55.818;37.084;2022-12-29T13:09:28;12.40;;;5.80;;
72801;SDS011;61891;55.818;37.084;2022-12-29T13:20:45;8.93;;;4.30;;
72801;SDS011;61891;55.818;37.084;2022-12-29T13:29:21;12.52;;;5.30;;
72801;SDS011;61891;55.818;37.084;2022-12-29T13:37:08;12.80;;;4.93;;
72801;SDS011;61891;55.818;37.084;2022-12-29T13:39:39;12.18;;;5.05;;
72801;SDS011;61891;55.818;37.084;2022-12-29T13:42:08;12.48;;;5.25;;
72801;SDS011;61891;55.818;37.084;2022-12-29T13:44:39;13.68;;;4.57;;
72801;SDS011;61891;55.818;37.084;2022-12-29T13:47:19;14.77;;;5.57;;
72801;SDS011;61891;55.818;37.084;2022-12-29T13:49:55;15.38;;;5.28;;
72801;SDS011;61891;55.818;37.084;2022-12-29T13:55:08;12.73;;;5.13;;
72801;SDS011;61891;55.818;37.084;2022-12-29T13:57:47;17.25;;;5.80;;
72801;SDS011;61891;55.818;37.084;2022-12-29T14:00:20;14.88;;;4.95;;
72801;SDS011;61891;55.818;37.084;2022-12-29T14:05:27;14.00;;;5.72;;
72801;SDS011;61891;55.818;37.084;2022-12-29T14:08:01;18.00;;;5.78;;
72801;SDS011;61891;55.818;37.084;2022-12-29T14:10:31;19.85;;;5.90;;
72801;SDS011;61891;55.818;37.084;2022-12-29T14:13:03;16.45;;;5.57;;
72801;SDS011;61891;55.818;37.084;2022-12-29T14:15:37;13.68;;;5.70;;
72801;SDS011;61891;55.818;37.084;2022-12-29T14:18:11;21.15;;;5.78;;
72801;SDS011;61891;55.818;37.084;2022-12-29T14:23:25;17.58;;;6.70;;
72801;SDS011;61891;55.818;37.084;2022-12-29T14:28:38;17.98;;;6.43;;
72801;SDS011;61891;55.818;37.084;2022-12-29T14:33:35;16.40;;;5.57;;
72801;SDS011;61891;55.818;37.084;2022-12-29T14:36:21;16.15;;;6.30;;
72801;SDS011;61891;55.818;37.084;2022-12-29T14:38:52;14.68;;;6.20;;
72801;SDS011;61891;55.818;37.084;2022-12-29T14:44:23;17.35;;;6.45;;
72801;SDS011;61891;55.818;37.084;2022-12-29T14:46:46;16.42;;;6.78;;
72801;SDS011;61891;55.818;37.084;2022-12-29T14:49:20;18.10;;;6.47;;
72801;SDS011;61891;55.818;37.084;2022-12-29T14:51:50;16.27;;;5.90;;
72801;SDS011;61891;55.818;37.084;2022-12-29T14:54:40;13.55;;;4.47;;
72801;SDS011;61891;55.818;37.084;2022-12-29T14:57:42;18.52;;;5.55;;
72801;SDS011;61891;55.818;37.084;2022-12-29T15:00:16;20.90;;;6.10;;
72801;SDS011;61891;55.818;37.084;2022-12-29T15:03:07;18.70;;;6.80;;
72801;SDS011;61891;55.818;37.084;2022-12-29T15:05:41;14.60;;;5.18;;
72801;SDS011;61891;55.818;37.084;2022-12-29T15:10:42;14.27;;;5.03;;
72801;SDS011;61891;55.818;37.084;2022-12-29T15:13:15;19.95;;;6.70;;
72801;SDS011;61891;55.818;37.084;2022-12-29T15:15:47;19.20;;;6.10;;
72801;SDS011;61891;55.818;37.084;2022-12-29T15:18:23;20.58;;;7.47;;
72801;SDS011;61891;55.818;37.084;2022-12-29T15:20:55;19.92;;;6.85;;
72801;SDS011;61891;55.818;37.084;2022-12-29T15:23:24;18.58;;;7.18;;
72801;SDS011;61891;55.818;37.084;2022-12-29T15:25:53;22.13;;;6.50;;
72801;SDS011;61891;55.818;37.084;2022-12-29T15:28:27;19.42;;;6.57;;
72801;SDS011;61891;55.818;37.084;2022-12-29T15:31:02;21.45;;;6.45;;
72801;SDS011;61891;55.818;37.084;2022-12-29T15:33:29;20.25;;;6.70;;
72801;SDS011;61891;55.818;37.084;2022-12-29T15:35:56;19.75;;;6.88;;
72801;SDS011;61891;55.818;37.084;2022-12-29T15:38:27;25.42;;;9.38;;
72801;SDS011;61891;55.818;37.084;2022-12-29T15:40:55;22.23;;;7.10;;
72801;SDS011;61891;55.818;37.084;2022-12-29T15:45:50;22.25;;;6.78;;
72801;SDS011;61891;55.818;37.084;2022-12-29T15:48:21;24.45;;;7.85;;
72801;SDS011;61891;55.818;37.084;2022-12-29T15:50:48;22.08;;;6.65;;
72801;SDS011;61891;55.818;37.084;2022-12-29T15:53:19;20.20;;;6.65;;
72801;SDS011;61891;55.818;37.084;2022-12-29T15:55:57;23.33;;;6.95;;
72801;SDS011;61891;55.818;37.084;2022-12-29T15:58:26;19.90;;;7.07;;
72801;SDS011;61891;55.818;37.084;2022-12-29T16:00:58;20.75;;;6.60;;
72801;SDS011;61891;55.818;37.084;2022-12-29T16:03:26;23.17;;;7.43;;
72801;SDS011;61891;55.818;37.084;2022-12-29T16:05:56;26.58;;;8.00;;
72801;SDS011;61891;55.818;37.084;2022-12-29T16:08:34;24.08;;;7.45;;
72801;SDS011;61891;55.818;37.084;2022-12-29T16:11:17;26.75;;;9.10;;
72801;SDS011;61891;55.818;37.084;2022-12-29T16:13:43;25.35;;;7.68;;
72801;SDS011;61891;55.818;37.084;2022-12-29T16:16:15;24.42;;;7.95;;
72801;SDS011;61891;55.818;37.084;2022-12-29T16:18:43;24.90;;;7.35;;
72801;SDS011;61891;55.818;37.084;2022-12-29T16:26:48;22.75;;;6.93;;
72801;SDS011;61891;55.818;37.084;2022-12-29T16:29:34;23.35;;;6.95;;
72801;SDS011;61891;55.818;37.084;2022-12-29T16:32:01;33.67;;;10.23;;
72801;SDS011;61891;55.818;37.084;2022-12-29T16:34:42;29.88;;;9.25;;
72801;SDS011;61891;55.818;37.084;2022-12-29T16:37:30;27.65;;;7.70;;
72801;SDS011;61891;55.818;37.084;2022-12-29T16:47:45;26.35;;;8.35;;
72801;SDS011;61891;55.818;37.084;2022-12-29T16:50:13;25.77;;;8.15;;
72801;SDS011;61891;55.818;37.084;2022-12-29T16:52:47;25.88;;;7.82;;
72801;SDS011;61891;55.818;37.084;2022-12-29T16:55:15;24.20;;;7.07;;
72801;SDS011;61891;55.818;37.084;2022-12-29T16:57:43;25.65;;;7.72;;
72801;SDS011;61891;55.818;37.084;2022-12-29T17:00:31;26.65;;;7.00;;
72801;SDS011;61891;55.818;37.084;2022-12-29T17:02:59;30.30;;;8.10;;
72801;SDS011;61891;55.818;37.084;2022-12-29T17:05:26;27.02;;;7.85;;
72801;SDS011;61891;55.818;37.084;2022-12-29T17:07:52;23.30;;;6.68;;
72801;SDS011;61891;55.818;37.084;2022-12-29T17:10:18;31.10;;;9.30;;
72801;SDS011;61891;55.818;37.084;2022-12-29T17:12:45;24.95;;;7.95;;
72801;SDS011;61891;55.818;37.084;2022-12-29T17:15:14;23.50;;;8.10;;
72801;SDS011;61891;55.818;37.084;2022-12-29T17:17:57;22.55;;;8.25;;
72801;SDS011;61891;55.818;37.084;2022-12-29T17:20:28;21.20;;;7.22;;
72801;SDS011;61891;55.818;37.084;2022-12-29T17:22:56;24.85;;;7.82;;
72801;SDS011;61891;55.818;37.084;2022-12-29T17:25:23;23.85;;;7.43;;
72801;SDS011;61891;55.818;37.084;2022-12-29T17:27:56;28.73;;;9.27;;
72801;SDS011;61891;55.818;37.084;2022-12-29T17:30:25;30.50;;;10.48;;
72801;SDS011;61891;55.818;37.084;2022-12-29T17:32:55;26.00;;;8.40;;